Terminal Aerodrome Forecast
Issued by NWS

Home | Current Version | Previous Version | Text Only | Print | Product List | Glossary On
Versions: 1 2 3 4 5 6 7 8 9 10 11 12 13 14 15 16
399
FTPA31 PHFO 281739
TAFHTO
TAF
PHTO 281739Z 2818/2918 24005KT P6SM VCSH SCT025 BKN045
     FM282100 10011KT P6SM SCT025 SCT050
     FM290500 24005KT P6SM VCSH SCT025 BKN045=

USA.gov is the U.S. government's official web portal to all federal, state and local government web resources and services.